createdAt,value
2019-03-31T00:00:26.405Z,40.57
2019-03-31T00:01:26.390Z,40.43
2019-03-31T00:02:26.380Z,40.36
2019-03-31T00:03:26.420Z,40.42
2019-03-31T00:04:26.363Z,40.45
2019-03-31T00:05:26.392Z,40.38
2019-03-31T00:06:26.351Z,40.71
2019-03-31T00:07:26.342Z,40.55
2019-03-31T00:08:26.346Z,40.58
2019-03-31T00:09:26.328Z,40.45
2019-03-31T00:10:26.316Z,40.61
2019-03-31T00:11:26.307Z,40.36
2019-03-31T00:12:26.302Z,40.42
2019-03-31T00:13:26.318Z,40.54
2019-03-31T00:14:26.301Z,40.46
2019-03-31T00:15:26.288Z,40.40
2019-03-31T00:16:26.279Z,40.67
2019-03-31T00:17:26.284Z,40.48
2019-03-31T00:18:26.282Z,40.45
2019-03-31T00:19:26.273Z,40.45
2019-03-31T00:20:26.243Z,40.40
2019-03-31T00:21:26.250Z,40.45
2019-03-31T00:22:26.245Z,40.46
2019-03-31T00:23:26.254Z,40.66
2019-03-31T00:24:26.338Z,40.55
2019-03-31T00:25:26.240Z,40.49
2019-03-31T00:26:26.233Z,40.43
2019-03-31T00:27:26.236Z,40.71
2019-03-31T00:28:26.219Z,40.38
2019-03-31T00:29:26.209Z,40.63
2019-03-31T00:30:26.231Z,40.40
2019-03-31T00:31:26.192Z,40.56
2019-03-31T00:32:26.193Z,40.40
2019-03-31T00:33:26.177Z,40.45
2019-03-31T00:34:26.171Z,40.43
2019-03-31T00:35:26.216Z,40.58
2019-03-31T00:36:26.183Z,40.47
2019-03-31T00:37:26.156Z,40.72
2019-03-31T00:38:26.158Z,40.39
2019-03-31T00:39:26.143Z,40.46
2019-03-31T00:40:26.251Z,40.43
2019-03-31T00:41:26.139Z,40.40
2019-03-31T00:42:26.126Z,40.43
2019-03-31T00:43:26.121Z,40.42
2019-03-31T00:44:26.101Z,40.49
2019-03-31T00:45:26.101Z,40.44
2019-03-31T00:46:26.099Z,40.42
2019-03-31T00:47:26.097Z,40.39
2019-03-31T00:48:26.088Z,40.48
2019-03-31T00:49:26.082Z,40.53
2019-03-31T00:50:26.068Z,40.39
2019-03-31T00:51:26.121Z,40.54
2019-03-31T00:52:26.073Z,40.55
2019-03-31T00:53:26.047Z,40.63
2019-03-31T00:54:27.788Z,40.35
2019-03-31T00:55:27.065Z,40.34
2019-03-31T00:56:26.135Z,40.42
2019-03-31T00:57:26.036Z,40.42
2019-03-31T00:58:26.027Z,40.38
2019-03-31T00:59:26.030Z,40.42
2019-03-31T01:00:26.042Z,40.41
2019-03-31T01:01:36.360Z,40.36
2019-03-31T01:02:28.096Z,40.52
2019-03-31T01:03:26.028Z,40.38
2019-03-31T01:04:26.010Z,40.43
2019-03-31T01:05:26.000Z,40.47
2019-03-31T01:06:25.995Z,40.44
2019-03-31T01:07:26.068Z,40.55
2019-03-31T01:08:25.981Z,40.50
2019-03-31T01:09:25.971Z,40.68
2019-03-31T01:10:25.962Z,40.58
2019-03-31T01:11:25.956Z,40.39
2019-03-31T01:12:25.948Z,40.51
2019-03-31T01:13:25.951Z,40.42
2019-03-31T01:14:25.926Z,40.36
2019-03-31T01:15:25.916Z,40.57
2019-03-31T01:16:25.925Z,40.57
2019-03-31T01:17:25.908Z,40.38
2019-03-31T01:18:25.910Z,40.35
2019-03-31T01:19:25.888Z,40.43
2019-03-31T01:20:25.889Z,40.38
2019-03-31T01:21:25.881Z,40.45
2019-03-31T01:22:25.858Z,40.47
2019-03-31T01:23:25.871Z,40.50
2019-03-31T01:24:25.843Z,40.48
2019-03-31T01:25:25.847Z,40.51
2019-03-31T01:26:25.857Z,40.49
2019-03-31T01:27:25.842Z,40.51
2019-03-31T01:28:25.827Z,40.49
2019-03-31T01:29:25.916Z,40.45
2019-03-31T01:30:25.808Z,40.47
2019-03-31T01:31:28.371Z,40.44
2019-03-31T01:32:26.792Z,40.47
2019-03-31T01:33:25.805Z,40.43
2019-03-31T01:34:25.798Z,40.53
2019-03-31T01:35:25.783Z,40.53
2019-03-31T01:36:25.786Z,40.47
2019-03-31T01:37:25.776Z,40.56
2019-03-31T01:38:25.761Z,40.43
2019-03-31T01:39:25.773Z,40.43
2019-03-31T01:40:25.744Z,40.42
2019-03-31T01:41:25.743Z,40.43
2019-03-31T01:42:25.745Z,40.42
2019-03-31T01:43:25.725Z,40.59
2019-03-31T01:44:25.803Z,40.57
2019-03-31T01:45:25.703Z,40.49
2019-03-31T01:46:25.715Z,40.55
2019-03-31T01:47:25.699Z,40.43
2019-03-31T01:48:25.678Z,40.40
2019-03-31T01:49:25.694Z,40.58
2019-03-31T01:50:25.680Z,40.54
2019-03-31T01:51:25.663Z,40.47
2019-03-31T01:52:25.628Z,40.46
2019-03-31T01:53:26.647Z,40.44
2019-03-31T01:54:25.639Z,40.48
2019-03-31T01:55:25.637Z,40.61
2019-03-31T01:56:25.608Z,40.51
2019-03-31T01:57:26.611Z,40.47
2019-03-31T01:58:25.605Z,40.60
2019-03-31T01:59:25.626Z,40.46
2019-03-31T02:00:25.688Z,40.79
2019-03-31T02:01:25.594Z,40.46
2019-03-31T02:02:25.594Z,40.40
2019-03-31T02:03:25.581Z,40.50
2019-03-31T02:04:25.578Z,40.51
2019-03-31T02:05:25.648Z,40.32
2019-03-31T02:06:25.577Z,40.43
2019-03-31T02:07:25.550Z,40.40
2019-03-31T02:08:25.585Z,40.41
2019-03-31T02:09:25.584Z,40.48
2019-03-31T02:10:25.548Z,40.52
2019-03-31T02:11:25.562Z,40.53
2019-03-31T02:12:25.531Z,40.46
2019-03-31T02:13:25.522Z,40.50
2019-03-31T02:14:25.521Z,40.50
2019-03-31T02:15:25.531Z,40.49
2019-03-31T02:16:25.555Z,40.45
2019-03-31T02:17:25.531Z,40.58
2019-03-31T02:18:25.500Z,40.53
2019-03-31T02:19:25.507Z,40.67
2019-03-31T02:20:25.506Z,40.64
2019-03-31T02:21:25.493Z,40.53
2019-03-31T02:22:25.509Z,40.46
2019-03-31T02:23:25.483Z,40.55
2019-03-31T02:24:25.515Z,40.45
2019-03-31T02:25:25.472Z,40.45
2019-03-31T02:26:25.493Z,40.47
2019-03-31T02:27:25.494Z,40.49
2019-03-31T02:28:25.472Z,40.44
2019-03-31T02:29:25.471Z,40.57
2019-03-31T02:30:25.462Z,40.92
2019-03-31T02:31:25.449Z,40.42
2019-03-31T02:32:25.498Z,40.44
2019-03-31T02:33:25.477Z,40.60
2019-03-31T02:34:25.442Z,40.60
2019-03-31T02:35:25.422Z,40.54
2019-03-31T02:36:25.413Z,40.50
2019-03-31T02:37:25.402Z,40.45
2019-03-31T02:38:25.415Z,40.45
2019-03-31T02:39:25.392Z,40.46
2019-03-31T02:40:25.391Z,40.58
2019-03-31T02:41:25.380Z,40.35
2019-03-31T02:42:25.376Z,40.45
2019-03-31T02:43:25.404Z,40.59
2019-03-31T02:44:25.344Z,40.38
2019-03-31T02:45:25.342Z,40.41
2019-03-31T02:46:25.335Z,40.65
2019-03-31T02:47:25.323Z,40.44
2019-03-31T02:48:25.331Z,40.40
2019-03-31T02:49:25.308Z,40.46
2019-03-31T02:50:25.303Z,40.38
2019-03-31T02:51:25.300Z,40.48
2019-03-31T02:52:25.292Z,40.45
2019-03-31T02:53:25.284Z,40.46
2019-03-31T02:54:25.278Z,40.53
2019-03-31T02:55:25.267Z,40.42
2019-03-31T02:56:25.270Z,40.45
2019-03-31T02:57:25.249Z,40.49
2019-03-31T02:58:25.258Z,40.47
2019-03-31T02:59:25.324Z,40.60
2019-03-31T03:00:25.227Z,40.47
2019-03-31T03:01:25.232Z,40.46
2019-03-31T03:02:40.522Z,40.57
2019-03-31T03:03:27.202Z,40.49
2019-03-31T03:04:25.302Z,40.65
2019-03-31T03:05:25.195Z,40.55
2019-03-31T03:06:25.172Z,40.49
2019-03-31T03:07:26.177Z,40.55
2019-03-31T03:08:25.179Z,40.57
2019-03-31T03:09:25.189Z,40.54
2019-03-31T03:10:25.157Z,40.45
2019-03-31T03:11:25.156Z,40.51
2019-03-31T03:12:25.125Z,40.45
2019-03-31T03:13:25.198Z,40.48
2019-03-31T03:14:25.112Z,40.68
2019-03-31T03:15:25.113Z,40.50
2019-03-31T03:16:25.104Z,40.43
2019-03-31T03:17:25.095Z,40.54
2019-03-31T03:18:25.093Z,40.54
2019-03-31T03:19:25.105Z,40.47
2019-03-31T03:20:25.065Z,40.50
2019-03-31T03:21:25.242Z,40.47
2019-03-31T03:22:25.053Z,40.46
2019-03-31T03:23:25.048Z,40.49
2019-03-31T03:24:25.061Z,40.54
2019-03-31T03:25:25.031Z,40.51
2019-03-31T03:26:25.024Z,40.58
2019-03-31T03:27:25.012Z,40.57
2019-03-31T03:28:25.014Z,40.49
2019-03-31T03:29:25.029Z,40.48
2019-03-31T03:30:25.141Z,40.59
2019-03-31T03:31:25.021Z,40.52
2019-03-31T03:32:24.982Z,40.49
2019-03-31T03:33:24.999Z,40.53
2019-03-31T03:34:24.999Z,40.55
2019-03-31T03:35:24.959Z,40.52
2019-03-31T03:36:24.952Z,40.48
2019-03-31T03:37:24.961Z,40.53
2019-03-31T03:38:24.936Z,40.55
2019-03-31T03:39:24.927Z,40.58
2019-03-31T03:40:24.919Z,40.58
2019-03-31T03:41:24.925Z,40.56
2019-03-31T03:42:24.938Z,40.48
2019-03-31T03:43:24.906Z,40.51
2019-03-31T03:44:24.919Z,40.59
2019-03-31T03:45:24.925Z,40.48
2019-03-31T03:46:24.906Z,40.61
2019-03-31T03:47:24.936Z,40.49
2019-03-31T03:48:24.895Z,40.63
2019-03-31T03:49:24.875Z,40.51
2019-03-31T03:50:24.861Z,40.69
2019-03-31T03:51:25.876Z,40.43
2019-03-31T03:52:24.866Z,40.46
2019-03-31T03:53:24.870Z,40.47
2019-03-31T03:54:24.848Z,40.57
2019-03-31T03:55:24.822Z,40.44
2019-03-31T03:56:28.918Z,40.52
2019-03-31T03:57:24.816Z,40.54
2019-03-31T03:58:24.830Z,40.61
2019-03-31T03:59:24.795Z,40.52
2019-03-31T04:00:24.806Z,40.61
2019-03-31T04:01:24.816Z,40.57
2019-03-31T04:02:24.826Z,40.51
2019-03-31T04:03:30.419Z,40.72
2019-03-31T04:04:26.798Z,40.51
2019-03-31T04:05:24.818Z,40.52
2019-03-31T04:06:24.797Z,40.51
2019-03-31T04:07:24.787Z,40.51
2019-03-31T04:08:24.796Z,40.54
2019-03-31T04:09:24.773Z,40.54
2019-03-31T04:10:24.776Z,40.49
2019-03-31T04:11:24.750Z,40.59
2019-03-31T04:12:24.755Z,40.45
2019-03-31T04:13:24.750Z,40.63
2019-03-31T04:14:24.732Z,40.57
2019-03-31T04:15:24.726Z,40.47
2019-03-31T04:16:24.720Z,40.45
2019-03-31T04:17:24.716Z,40.47
2019-03-31T04:18:24.708Z,40.53
2019-03-31T04:19:24.715Z,40.51
2019-03-31T04:20:24.712Z,40.50
2019-03-31T04:21:24.714Z,40.57
2019-03-31T04:22:24.707Z,40.56
2019-03-31T04:23:24.692Z,40.53
2019-03-31T04:24:24.715Z,40.55
2019-03-31T04:25:24.682Z,40.60
2019-03-31T04:26:24.666Z,40.63
2019-03-31T04:27:24.662Z,40.50
2019-03-31T04:28:24.653Z,40.54
2019-03-31T04:29:24.674Z,40.51
2019-03-31T04:30:24.659Z,40.55
2019-03-31T04:31:24.634Z,40.49
2019-03-31T04:32:24.643Z,40.46
2019-03-31T04:33:24.644Z,40.44
2019-03-31T04:34:24.613Z,40.41
2019-03-31T04:35:24.629Z,40.46
2019-03-31T04:36:24.613Z,40.46
2019-03-31T04:37:24.610Z,40.49
2019-03-31T04:38:24.599Z,40.59
2019-03-31T04:39:24.635Z,40.46
2019-03-31T04:40:24.609Z,40.53
2019-03-31T04:41:24.604Z,40.59
2019-03-31T04:42:24.601Z,40.48
2019-03-31T04:43:24.577Z,40.57
2019-03-31T04:44:24.577Z,40.53
2019-03-31T04:45:24.575Z,40.57
2019-03-31T04:46:24.555Z,40.50
2019-03-31T04:47:24.551Z,40.57
2019-03-31T04:48:24.538Z,40.53
2019-03-31T04:49:24.530Z,40.56
2019-03-31T04:50:24.526Z,40.56
2019-03-31T04:51:24.517Z,40.53
2019-03-31T04:52:24.506Z,40.52
2019-03-31T04:53:24.492Z,40.54
2019-03-31T04:54:24.485Z,40.50
2019-03-31T04:55:24.502Z,40.53
2019-03-31T04:56:24.535Z,40.50
2019-03-31T04:57:24.611Z,40.69
2019-03-31T04:58:24.499Z,40.51
2019-03-31T04:59:24.509Z,40.65
2019-03-31T05:00:24.521Z,40.62
2019-03-31T05:01:24.526Z,40.64
2019-03-31T05:02:27.217Z,40.79
2019-03-31T05:03:25.516Z,40.58
2019-03-31T05:04:24.504Z,40.51
2019-03-31T05:05:24.520Z,40.59
2019-03-31T05:06:24.498Z,40.56
2019-03-31T05:07:24.506Z,40.58
2019-03-31T05:08:24.477Z,40.53
2019-03-31T05:09:24.467Z,40.52
2019-03-31T05:10:24.482Z,40.59
2019-03-31T05:11:24.449Z,40.59
2019-03-31T05:12:24.463Z,40.53
2019-03-31T05:13:24.453Z,40.51
2019-03-31T05:14:24.444Z,40.48
2019-03-31T05:15:24.431Z,40.49
2019-03-31T05:16:24.424Z,40.48
2019-03-31T05:17:24.439Z,40.47
2019-03-31T05:18:24.429Z,40.50
2019-03-31T05:19:24.397Z,40.50
2019-03-31T05:20:24.407Z,40.64
2019-03-31T05:21:24.411Z,40.53
2019-03-31T05:22:24.408Z,40.67
2019-03-31T05:23:24.386Z,40.45
2019-03-31T05:24:24.367Z,40.53
2019-03-31T05:25:24.384Z,40.50
2019-03-31T05:26:24.380Z,40.46
2019-03-31T05:27:24.379Z,40.45
2019-03-31T05:28:24.371Z,40.63
2019-03-31T05:29:24.375Z,40.64
2019-03-31T05:30:24.340Z,40.60
2019-03-31T05:31:24.352Z,40.68
2019-03-31T05:32:24.323Z,40.53
2019-03-31T05:33:24.322Z,40.43
2019-03-31T05:34:24.318Z,40.51
2019-03-31T05:35:26.903Z,40.51
2019-03-31T05:36:24.291Z,40.79
2019-03-31T05:37:24.305Z,40.53
2019-03-31T05:38:24.272Z,40.41
2019-03-31T05:39:24.288Z,40.44
2019-03-31T05:40:24.282Z,40.45
2019-03-31T05:41:24.273Z,40.37
2019-03-31T05:42:24.271Z,40.70
2019-03-31T05:43:24.250Z,40.40
2019-03-31T05:44:24.271Z,40.65
2019-03-31T05:45:24.280Z,40.48
2019-03-31T05:46:24.260Z,40.60
2019-03-31T05:47:24.243Z,40.42
2019-03-31T05:48:24.236Z,40.49
2019-03-31T05:49:24.230Z,40.59
2019-03-31T05:50:24.237Z,40.58
2019-03-31T05:51:24.213Z,40.34
2019-03-31T05:52:24.281Z,40.50
2019-03-31T05:53:24.213Z,40.48
2019-03-31T05:54:24.193Z,40.43
2019-03-31T05:55:24.192Z,40.39
2019-03-31T05:56:24.187Z,40.61
2019-03-31T05:57:24.183Z,40.41
2019-03-31T05:58:24.159Z,40.39
2019-03-31T05:59:24.227Z,40.38
2019-03-31T06:00:25.154Z,40.33
2019-03-31T06:01:24.138Z,40.35
2019-03-31T06:02:24.135Z,40.37
2019-03-31T06:03:24.126Z,40.37
2019-03-31T06:04:33.014Z,40.31
2019-03-31T06:05:26.127Z,40.51
2019-03-31T06:06:24.104Z,40.45
2019-03-31T06:07:24.090Z,40.41
2019-03-31T06:08:24.092Z,40.57
2019-03-31T06:09:24.076Z,40.29
2019-03-31T06:10:24.066Z,40.39
2019-03-31T06:11:24.063Z,40.35
2019-03-31T06:12:24.048Z,40.35
2019-03-31T06:13:24.041Z,40.46
2019-03-31T06:14:24.036Z,40.63
2019-03-31T06:15:24.028Z,40.24
2019-03-31T06:16:24.026Z,40.32
2019-03-31T06:17:24.018Z,40.35
2019-03-31T06:18:24.004Z,40.34
2019-03-31T06:19:23.991Z,40.28
2019-03-31T06:20:23.986Z,40.27
2019-03-31T06:21:24.204Z,40.35
2019-03-31T06:22:23.987Z,40.26
2019-03-31T06:23:23.961Z,40.26
2019-03-31T06:24:23.954Z,40.15
2019-03-31T06:25:23.954Z,40.38
2019-03-31T06:26:23.935Z,40.45
2019-03-31T06:27:23.956Z,40.27
2019-03-31T06:28:23.949Z,40.44
2019-03-31T06:29:23.932Z,40.16
2019-03-31T06:30:23.926Z,40.26
2019-03-31T06:31:23.923Z,40.32
2019-03-31T06:32:23.953Z,40.26
2019-03-31T06:33:23.906Z,40.21
2019-03-31T06:34:23.902Z,40.30
2019-03-31T06:35:23.880Z,40.36
2019-03-31T06:36:24.879Z,40.26
2019-03-31T06:37:23.965Z,40.33
2019-03-31T06:38:23.890Z,40.23
2019-03-31T06:39:23.858Z,40.21
2019-03-31T06:40:23.853Z,40.18
2019-03-31T06:41:23.846Z,40.51
2019-03-31T06:42:23.833Z,40.38
2019-03-31T06:43:23.833Z,40.25
2019-03-31T06:44:23.814Z,40.49
2019-03-31T06:45:23.811Z,40.19
2019-03-31T06:46:23.802Z,40.28
2019-03-31T06:47:23.803Z,40.22
2019-03-31T06:48:23.889Z,40.37
2019-03-31T06:49:23.781Z,40.27
2019-03-31T06:50:23.769Z,40.40
2019-03-31T06:51:23.761Z,40.34
2019-03-31T06:52:23.755Z,40.39
2019-03-31T06:53:23.755Z,40.37
2019-03-31T06:54:23.740Z,40.21
2019-03-31T06:55:23.735Z,40.46
2019-03-31T06:56:23.747Z,40.22
2019-03-31T06:57:23.715Z,40.28
2019-03-31T06:58:23.709Z,40.21
2019-03-31T06:59:23.713Z,40.35
2019-03-31T07:00:23.689Z,40.54
2019-03-31T07:01:23.682Z,40.42
2019-03-31T07:02:23.723Z,40.35
2019-03-31T07:03:23.678Z,40.41
2019-03-31T07:04:24.722Z,40.21
2019-03-31T07:05:23.683Z,40.30
2019-03-31T07:06:23.671Z,40.48
2019-03-31T07:07:24.050Z,40.26
2019-03-31T07:08:24.652Z,40.23
2019-03-31T07:09:23.657Z,40.31
2019-03-31T07:10:23.640Z,40.76
2019-03-31T07:11:23.625Z,40.08
2019-03-31T07:12:23.638Z,40.55
2019-03-31T07:13:23.625Z,40.20
2019-03-31T07:14:23.606Z,40.33
2019-03-31T07:15:23.612Z,40.17
2019-03-31T07:16:23.587Z,40.16
2019-03-31T07:17:23.582Z,40.16
2019-03-31T07:18:23.572Z,40.37
2019-03-31T07:19:24.570Z,40.39
2019-03-31T07:20:23.576Z,40.25
2019-03-31T07:21:23.551Z,40.29
2019-03-31T07:22:24.442Z,40.31
2019-03-31T07:23:24.537Z,40.41
2019-03-31T07:24:23.529Z,40.31
2019-03-31T07:25:23.520Z,40.35
2019-03-31T07:26:23.533Z,40.63
2019-03-31T07:27:23.502Z,40.47
2019-03-31T07:28:23.501Z,40.52
2019-03-31T07:29:23.493Z,40.48
2019-03-31T07:30:23.479Z,40.66
2019-03-31T07:31:23.490Z,40.34
2019-03-31T07:32:23.464Z,40.41
2019-03-31T07:33:23.463Z,40.63
2019-03-31T07:34:23.453Z,40.53
2019-03-31T07:35:23.440Z,40.43
2019-03-31T07:36:23.476Z,40.56
2019-03-31T07:37:23.428Z,40.96
2019-03-31T07:38:23.578Z,40.79
2019-03-31T07:39:23.791Z,40.94
2019-03-31T07:40:23.603Z,40.80
2019-03-31T07:41:23.701Z,40.96
2019-03-31T07:42:23.508Z,40.97
2019-03-31T07:43:23.407Z,40.95
2019-03-31T07:44:23.404Z,41.02
2019-03-31T07:45:23.387Z,40.94
2019-03-31T07:46:23.384Z,40.95
2019-03-31T07:47:23.390Z,40.79
2019-03-31T07:48:23.367Z,40.89
2019-03-31T07:49:23.363Z,40.70
2019-03-31T07:50:23.352Z,40.88
2019-03-31T07:51:23.355Z,40.83
2019-03-31T07:52:23.346Z,40.86
2019-03-31T07:53:23.330Z,40.94
2019-03-31T07:54:23.390Z,40.85
2019-03-31T07:55:23.322Z,40.84
2019-03-31T07:56:23.308Z,41.16
2019-03-31T07:57:23.300Z,40.91
2019-03-31T07:58:23.294Z,40.77
2019-03-31T07:59:23.345Z,40.93
2019-03-31T08:00:23.297Z,41.00
2019-03-31T08:01:23.270Z,41.00
2019-03-31T08:02:23.277Z,40.91
2019-03-31T08:03:23.287Z,40.93
2019-03-31T08:04:23.272Z,40.87
2019-03-31T08:05:33.020Z,41.04
2019-03-31T08:06:25.230Z,41.06
2019-03-31T08:07:23.221Z,41.00
2019-03-31T08:08:23.306Z,41.42
2019-03-31T08:09:23.200Z,41.50
2019-03-31T08:10:23.226Z,41.52
2019-03-31T08:11:23.204Z,41.38
2019-03-31T08:12:23.211Z,41.78
2019-03-31T08:13:23.186Z,41.33
2019-03-31T08:14:23.182Z,41.54
2019-03-31T08:15:23.173Z,41.50
2019-03-31T08:16:23.165Z,41.53
2019-03-31T08:17:23.154Z,41.71
2019-03-31T08:18:23.149Z,41.65
2019-03-31T08:19:23.184Z,41.58
2019-03-31T08:20:23.148Z,41.79
2019-03-31T08:21:23.126Z,41.75
2019-03-31T08:22:23.113Z,41.62
2019-03-31T08:23:23.140Z,41.70
2019-03-31T08:24:23.182Z,41.64
2019-03-31T08:25:23.101Z,41.62
2019-03-31T08:26:23.087Z,41.63
2019-03-31T08:27:23.083Z,41.77
2019-03-31T08:28:23.071Z,41.68
2019-03-31T08:29:23.104Z,41.52
2019-03-31T08:30:23.068Z,41.98
2019-03-31T08:31:23.062Z,42.09
2019-03-31T08:32:23.039Z,42.01
2019-03-31T08:33:23.042Z,42.08
2019-03-31T08:34:23.600Z,42.13
2019-03-31T08:35:23.042Z,42.57
2019-03-31T08:36:23.029Z,42.39
2019-03-31T08:37:23.067Z,42.47
2019-03-31T08:38:24.592Z,42.34
2019-03-31T08:39:23.989Z,42.53
2019-03-31T08:40:23.140Z,42.28
2019-03-31T08:41:22.991Z,42.24
2019-03-31T08:42:22.979Z,42.13
2019-03-31T08:43:22.981Z,42.12
2019-03-31T08:44:22.952Z,42.10
2019-03-31T08:45:23.058Z,42.13
2019-03-31T08:46:22.966Z,42.20
2019-03-31T08:47:22.997Z,42.15
2019-03-31T08:48:22.977Z,42.08
2019-03-31T08:49:23.001Z,41.88
2019-03-31T08:50:22.958Z,42.05
2019-03-31T08:51:22.955Z,41.90
2019-03-31T08:52:22.934Z,41.93
2019-03-31T08:53:22.929Z,42.01
2019-03-31T08:54:22.922Z,41.78
2019-03-31T08:55:22.922Z,41.83
2019-03-31T08:56:22.941Z,41.76
2019-03-31T08:57:22.906Z,41.78
2019-03-31T08:58:22.898Z,41.82
2019-03-31T08:59:22.896Z,41.78
2019-03-31T09:00:22.888Z,41.61
2019-03-31T09:01:22.883Z,41.54
2019-03-31T09:02:22.875Z,41.67
2019-03-31T09:03:22.865Z,41.60
2019-03-31T09:04:22.887Z,41.26
2019-03-31T09:05:22.851Z,41.27
2019-03-31T09:06:22.837Z,41.78
2019-03-31T09:07:22.834Z,41.42
2019-03-31T09:08:22.824Z,41.42
2019-03-31T09:09:22.815Z,41.44
2019-03-31T09:10:22.806Z,41.45
2019-03-31T09:11:22.795Z,41.49
2019-03-31T09:12:22.804Z,41.51
2019-03-31T09:13:22.778Z,41.50
2019-03-31T09:14:22.773Z,41.33
2019-03-31T09:15:22.778Z,41.40
2019-03-31T09:16:22.755Z,41.50
2019-03-31T09:17:22.761Z,41.30
2019-03-31T09:18:22.764Z,41.22
2019-03-31T09:19:22.753Z,41.13
2019-03-31T09:20:22.745Z,41.19
2019-03-31T09:21:22.738Z,41.18
2019-03-31T09:22:22.766Z,41.09
2019-03-31T09:23:22.748Z,41.03
2019-03-31T09:24:22.735Z,41.05
2019-03-31T09:25:22.738Z,41.10
2019-03-31T09:26:22.727Z,41.62
2019-03-31T09:27:22.720Z,41.64
2019-03-31T09:28:22.720Z,41.38
2019-03-31T09:29:22.698Z,41.45
2019-03-31T09:30:22.687Z,41.65
2019-03-31T09:31:22.702Z,41.44
2019-03-31T09:32:22.709Z,41.29
2019-03-31T09:33:22.704Z,41.30
2019-03-31T09:34:22.684Z,41.29
2019-03-31T09:35:22.681Z,41.13
2019-03-31T09:36:22.676Z,41.18
2019-03-31T09:37:22.667Z,41.01
2019-03-31T09:38:22.680Z,40.97
2019-03-31T09:39:22.683Z,40.89
2019-03-31T09:40:22.675Z,40.82
2019-03-31T09:41:22.673Z,41.05
2019-03-31T09:42:22.667Z,40.86
2019-03-31T09:43:22.663Z,40.90
2019-03-31T09:44:22.750Z,40.96
2019-03-31T09:45:22.643Z,40.85
2019-03-31T09:46:22.638Z,40.95
2019-03-31T09:47:22.627Z,40.83
2019-03-31T09:48:22.621Z,40.79
2019-03-31T09:49:22.622Z,41.01
2019-03-31T09:50:22.617Z,40.93
2019-03-31T09:51:22.602Z,40.92
2019-03-31T09:52:22.594Z,41.09
2019-03-31T09:53:22.588Z,41.38
2019-03-31T09:54:22.579Z,41.27
2019-03-31T09:55:23.179Z,41.51
2019-03-31T09:56:23.584Z,41.40
2019-03-31T09:57:22.566Z,41.44
2019-03-31T09:58:22.548Z,41.57
2019-03-31T09:59:22.542Z,41.54
2019-03-31T10:00:22.871Z,41.62
2019-03-31T10:01:22.521Z,41.63
2019-03-31T10:02:22.518Z,41.74
2019-03-31T10:03:22.510Z,42.12
2019-03-31T10:04:22.507Z,41.84
2019-03-31T10:05:22.511Z,41.97
2019-03-31T10:06:30.113Z,42.30
2019-03-31T10:07:24.473Z,42.18
2019-03-31T10:08:23.470Z,42.12
2019-03-31T10:09:22.464Z,42.22
2019-03-31T10:10:22.456Z,42.19
2019-03-31T10:11:22.458Z,42.38
2019-03-31T10:12:22.452Z,42.23
2019-03-31T10:13:22.431Z,42.37
2019-03-31T10:14:22.433Z,42.52
2019-03-31T10:15:22.474Z,42.50
2019-03-31T10:16:22.417Z,42.61
2019-03-31T10:17:22.404Z,42.41
2019-03-31T10:18:22.397Z,42.52
2019-03-31T10:19:22.385Z,42.51
2019-03-31T10:20:22.377Z,42.78
2019-03-31T10:21:22.411Z,42.51
2019-03-31T10:22:22.359Z,42.50
2019-03-31T10:23:22.357Z,42.45
2019-03-31T10:24:22.348Z,42.36
2019-03-31T10:25:22.340Z,42.38
2019-03-31T10:26:31.667Z,42.44
2019-03-31T10:27:24.336Z,42.51
2019-03-31T10:28:22.317Z,42.28
2019-03-31T10:29:22.312Z,42.17
2019-03-31T10:30:22.302Z,42.14
2019-03-31T10:31:22.296Z,42.00
2019-03-31T10:32:22.306Z,41.93
2019-03-31T10:33:22.302Z,41.91
2019-03-31T10:34:22.274Z,42.52
2019-03-31T10:35:22.267Z,42.42
2019-03-31T10:36:22.281Z,42.63
2019-03-31T10:37:22.253Z,42.62
2019-03-31T10:38:22.249Z,42.56
2019-03-31T10:39:22.233Z,42.75
2019-03-31T10:40:22.228Z,42.64
2019-03-31T10:41:22.222Z,42.50
2019-03-31T10:42:22.211Z,42.46
2019-03-31T10:43:22.214Z,42.41
2019-03-31T10:44:22.196Z,42.33
2019-03-31T10:45:22.196Z,42.41
2019-03-31T10:46:22.178Z,42.32
2019-03-31T10:47:22.173Z,42.36
2019-03-31T10:48:22.172Z,42.28
2019-03-31T10:49:22.155Z,42.14
2019-03-31T10:50:22.152Z,41.71
2019-03-31T10:51:22.143Z,41.30
2019-03-31T10:52:22.138Z,41.44
2019-03-31T10:53:22.132Z,41.21
2019-03-31T10:54:22.129Z,41.14
2019-03-31T10:55:22.116Z,41.29
2019-03-31T10:56:22.106Z,41.33
2019-03-31T10:57:22.102Z,41.28
2019-03-31T10:58:22.095Z,41.31
2019-03-31T10:59:22.101Z,41.28
2019-03-31T11:00:22.111Z,41.28
2019-03-31T11:01:22.072Z,41.47
2019-03-31T11:02:22.067Z,41.54
2019-03-31T11:03:22.057Z,41.45
2019-03-31T11:04:22.085Z,41.66
2019-03-31T11:05:22.078Z,41.63
2019-03-31T11:06:22.064Z,41.69
2019-03-31T11:07:22.062Z,41.79
2019-03-31T11:08:22.071Z,41.98
2019-03-31T11:09:22.056Z,41.91
2019-03-31T11:10:22.041Z,42.01
2019-03-31T11:11:22.029Z,42.44
2019-03-31T11:12:22.024Z,42.49
2019-03-31T11:13:22.020Z,42.50
2019-03-31T11:14:22.008Z,42.39
2019-03-31T11:15:22.022Z,42.62
2019-03-31T11:16:21.999Z,42.68
2019-03-31T11:17:21.987Z,42.76
2019-03-31T11:18:21.981Z,42.56
2019-03-31T11:19:21.971Z,42.70
2019-03-31T11:20:21.988Z,42.78
2019-03-31T11:21:21.971Z,42.83
2019-03-31T11:22:21.971Z,42.78
2019-03-31T11:23:21.946Z,42.77
2019-03-31T11:24:21.942Z,42.85
2019-03-31T11:25:25.337Z,42.88
2019-03-31T11:26:23.926Z,42.97
2019-03-31T11:27:21.911Z,42.93
2019-03-31T11:28:21.905Z,43.10
2019-03-31T11:29:21.903Z,43.13
2019-03-31T11:30:21.899Z,43.23
2019-03-31T11:31:21.893Z,43.90
2019-03-31T11:32:21.889Z,43.05
2019-03-31T11:33:21.878Z,43.30
2019-03-31T11:34:21.865Z,42.46
2019-03-31T11:35:21.856Z,42.71
2019-03-31T11:36:21.861Z,42.55
2019-03-31T11:37:21.844Z,42.46
2019-03-31T11:38:21.863Z,42.65
2019-03-31T11:39:21.872Z,42.31
2019-03-31T11:40:21.852Z,42.34
2019-03-31T11:41:21.846Z,42.39
2019-03-31T11:42:21.830Z,42.35
2019-03-31T11:43:21.825Z,42.30
2019-03-31T11:44:21.857Z,42.50
2019-03-31T11:45:21.807Z,42.33
2019-03-31T11:46:21.817Z,42.46
2019-03-31T11:47:21.821Z,42.25
2019-03-31T11:48:21.806Z,42.46
2019-03-31T11:49:21.795Z,42.38
2019-03-31T11:50:21.788Z,42.20
2019-03-31T11:51:21.797Z,42.39
2019-03-31T11:52:21.782Z,42.49
2019-03-31T11:53:21.767Z,42.49
2019-03-31T11:54:21.762Z,42.45
2019-03-31T11:55:21.755Z,42.40
2019-03-31T11:56:21.742Z,42.39
2019-03-31T11:57:21.760Z,42.20
2019-03-31T11:58:21.765Z,42.26
2019-03-31T11:59:21.740Z,42.23
2019-03-31T12:00:21.732Z,42.55
2019-03-31T12:01:21.723Z,42.49
2019-03-31T12:02:27.282Z,42.36
2019-03-31T12:03:23.713Z,42.64
2019-03-31T12:04:21.694Z,42.11
2019-03-31T12:05:21.693Z,42.17
2019-03-31T12:06:21.688Z,42.16
2019-03-31T12:07:27.757Z,42.14
2019-03-31T12:08:23.692Z,42.05
2019-03-31T12:09:21.668Z,42.10
2019-03-31T12:10:21.653Z,41.91
2019-03-31T12:11:21.644Z,42.02
2019-03-31T12:12:21.637Z,42.06
2019-03-31T12:13:21.637Z,42.13
2019-03-31T12:14:21.630Z,42.10
2019-03-31T12:15:21.612Z,42.14
2019-03-31T12:16:21.611Z,41.95
2019-03-31T12:17:21.603Z,42.19
2019-03-31T12:18:21.597Z,41.91
2019-03-31T12:19:21.607Z,41.97
2019-03-31T12:20:21.599Z,41.99
2019-03-31T12:21:21.590Z,42.20
2019-03-31T12:22:21.589Z,42.35
2019-03-31T12:23:21.573Z,41.93
2019-03-31T12:24:21.582Z,41.46
2019-03-31T12:25:21.571Z,41.64
2019-03-31T12:26:21.551Z,42.03
2019-03-31T12:27:21.545Z,41.62
2019-03-31T12:28:21.537Z,41.85
2019-03-31T12:29:21.540Z,42.03
2019-03-31T12:30:21.539Z,41.48
2019-03-31T12:31:21.507Z,41.64
2019-03-31T12:32:22.509Z,41.48
2019-03-31T12:33:21.504Z,41.39
2019-03-31T12:34:21.500Z,41.60
2019-03-31T12:35:21.513Z,41.47
2019-03-31T12:36:21.480Z,41.52
2019-03-31T12:37:21.472Z,41.60
2019-03-31T12:38:21.467Z,41.52
2019-03-31T12:39:21.462Z,41.57
2019-03-31T12:40:21.457Z,41.57
2019-03-31T12:41:21.444Z,41.53
2019-03-31T12:42:21.439Z,41.93
2019-03-31T12:43:21.431Z,41.62
2019-03-31T12:44:24.874Z,41.69
2019-03-31T12:45:21.428Z,41.83
2019-03-31T12:46:21.409Z,42.01
2019-03-31T12:47:21.407Z,41.78
2019-03-31T12:48:21.401Z,41.61
2019-03-31T12:49:21.391Z,41.78
2019-03-31T12:50:21.391Z,41.68
2019-03-31T12:51:21.392Z,43.23
2019-03-31T12:52:21.381Z,41.72